sensor_id;sensor_type;location;lat;lon;timestamp;temperature;humidity
64997;SHT31;51545;51.568;6.998;2022-10-22T00:02:25;12.28;98.67
64997;SHT31;51545;51.568;6.998;2022-10-22T00:04:52;12.24;98.62
64997;SHT31;51545;51.568;6.998;2022-10-22T00:07:19;12.25;98.56
64997;SHT31;51545;51.568;6.998;2022-10-22T00:09:45;12.21;98.56
64997;SHT31;51545;51.568;6.998;2022-10-22T00:12:12;12.21;98.39
64997;SHT31;51545;51.568;6.998;2022-10-22T00:14:39;12.21;98.45
64997;SHT31;51545;51.568;6.998;2022-10-22T00:17:06;12.24;98.52
64997;SHT31;51545;51.568;6.998;2022-10-22T00:19:32;12.20;98.54
64997;SHT31;51545;51.568;6.998;2022-10-22T00:21:58;12.18;98.59
64997;SHT31;51545;51.568;6.998;2022-10-22T00:24:24;12.04;98.46
64997;SHT31;51545;51.568;6.998;2022-10-22T00:26:51;11.99;98.68
64997;SHT31;51545;51.568;6.998;2022-10-22T00:29:17;11.97;98.68
64997;SHT31;51545;51.568;6.998;2022-10-22T00:31:44;11.98;98.82
64997;SHT31;51545;51.568;6.998;2022-10-22T00:34:15;11.97;98.74
64997;SHT31;51545;51.568;6.998;2022-10-22T00:36:45;11.91;98.72
64997;SHT31;51545;51.568;6.998;2022-10-22T00:39:13;11.87;98.72
64997;SHT31;51545;51.568;6.998;2022-10-22T00:41:43;11.86;98.78
64997;SHT31;51545;51.568;6.998;2022-10-22T00:47:14;11.90;98.72
64997;SHT31;51545;51.568;6.998;2022-10-22T00:49:41;11.88;98.58
64997;SHT31;51545;51.568;6.998;2022-10-22T00:52:09;11.88;98.47
64997;SHT31;51545;51.568;6.998;2022-10-22T00:54:36;11.90;98.40
64997;SHT31;51545;51.568;6.998;2022-10-22T00:57:04;11.88;98.34
64997;SHT31;51545;51.568;6.998;2022-10-22T00:59:30;11.90;98.32
64997;SHT31;51545;51.568;6.998;2022-10-22T01:01:57;11.84;98.17
64997;SHT31;51545;51.568;6.998;2022-10-22T01:04:23;11.73;98.12
64997;SHT31;51545;51.568;6.998;2022-10-22T01:06:48;11.73;98.27
64997;SHT31;51545;51.568;6.998;2022-10-22T01:18:05;11.70;98.52
64997;SHT31;51545;51.568;6.998;2022-10-22T01:31:22;11.59;98.55
64997;SHT31;51545;51.568;6.998;2022-10-22T01:33:52;11.55;98.54
64997;SHT31;51545;51.568;6.998;2022-10-22T01:36:19;11.56;98.73
64997;SHT31;51545;51.568;6.998;2022-10-22T01:38:46;11.55;98.70
64997;SHT31;51545;51.568;6.998;2022-10-22T01:41:14;11.56;98.81
64997;SHT31;51545;51.568;6.998;2022-10-22T01:43:40;11.58;98.82
64997;SHT31;51545;51.568;6.998;2022-10-22T01:46:06;11.62;98.85
64997;SHT31;51545;51.568;6.998;2022-10-22T01:48:52;11.58;98.80
64997;SHT31;51545;51.568;6.998;2022-10-22T01:54:42;11.55;98.93
64997;SHT31;51545;51.568;6.998;2022-10-22T01:57:17;11.62;99.00
64997;SHT31;51545;51.568;6.998;2022-10-22T02:02:27;11.49;98.91
64997;SHT31;51545;51.568;6.998;2022-10-22T02:04:59;11.43;98.84
64997;SHT31;51545;51.568;6.998;2022-10-22T02:07:48;11.46;99.00
64997;SHT31;51545;51.568;6.998;2022-10-22T02:10:19;11.49;99.12
64997;SHT31;51545;51.568;6.998;2022-10-22T02:12:49;11.50;99.22
64997;SHT31;51545;51.568;6.998;2022-10-22T02:15:18;11.46;99.10
64997;SHT31;51545;51.568;6.998;2022-10-22T02:17:46;11.39;99.05
64997;SHT31;51545;51.568;6.998;2022-10-22T02:20:22;11.45;99.17
64997;SHT31;51545;51.568;6.998;2022-10-22T02:22:51;11.36;99.02
64997;SHT31;51545;51.568;6.998;2022-10-22T02:25:17;11.35;99.23
64997;SHT31;51545;51.568;6.998;2022-10-22T02:27:48;11.43;99.40
64997;SHT31;51545;51.568;6.998;2022-10-22T02:30:20;11.40;99.30
64997;SHT31;51545;51.568;6.998;2022-10-22T02:35:22;11.29;99.33
64997;SHT31;51545;51.568;6.998;2022-10-22T02:37:50;11.23;99.38
64997;SHT31;51545;51.568;6.998;2022-10-22T02:40:19;11.21;99.43
64997;SHT31;51545;51.568;6.998;2022-10-22T02:42:46;11.22;99.48
64997;SHT31;51545;51.568;6.998;2022-10-22T02:45:15;11.21;99.51
64997;SHT31;51545;51.568;6.998;2022-10-22T02:47:44;11.19;99.49
64997;SHT31;51545;51.568;6.998;2022-10-22T02:50:11;11.18;99.46
64997;SHT31;51545;51.568;6.998;2022-10-22T02:52:37;11.21;99.68
64997;SHT31;51545;51.568;6.998;2022-10-22T02:55:03;11.23;99.76
64997;SHT31;51545;51.568;6.998;2022-10-22T02:57:31;11.38;99.92
64997;SHT31;51545;51.568;6.998;2022-10-22T02:59:57;11.36;99.92
64997;SHT31;51545;51.568;6.998;2022-10-22T03:02:23;11.45;99.97
64997;SHT31;51545;51.568;6.998;2022-10-22T03:04:49;11.42;99.84
64997;SHT31;51545;51.568;6.998;2022-10-22T03:07:15;11.45;99.86
64997;SHT31;51545;51.568;6.998;2022-10-22T03:09:41;11.38;99.77
64997;SHT31;51545;51.568;6.998;2022-10-22T03:12:07;11.34;99.70
64997;SHT31;51545;51.568;6.998;2022-10-22T03:14:33;11.34;99.78
64997;SHT31;51545;51.568;6.998;2022-10-22T03:16:58;11.28;99.76
64997;SHT31;51545;51.568;6.998;2022-10-22T03:19:24;11.23;99.76
64997;SHT31;51545;51.568;6.998;2022-10-22T03:21:54;11.22;99.86
64997;SHT31;51545;51.568;6.998;2022-10-22T03:24:25;11.22;99.83
64997;SHT31;51545;51.568;6.998;2022-10-22T03:26:54;11.15;99.77
64997;SHT31;51545;51.568;6.998;2022-10-22T03:29:20;11.19;99.86
64997;SHT31;51545;51.568;6.998;2022-10-22T03:31:50;11.12;99.78
64997;SHT31;51545;51.568;6.998;2022-10-22T03:34:17;11.10;99.73
64997;SHT31;51545;51.568;6.998;2022-10-22T03:36:42;11.07;99.73
64997;SHT31;51545;51.568;6.998;2022-10-22T03:39:09;11.07;99.76
64997;SHT31;51545;51.568;6.998;2022-10-22T03:41:38;11.01;99.80
64997;SHT31;51545;51.568;6.998;2022-10-22T03:44:04;10.97;99.69
64997;SHT31;51545;51.568;6.998;2022-10-22T03:46:30;10.93;99.68
64997;SHT31;51545;51.568;6.998;2022-10-22T03:48:55;10.88;99.65
64997;SHT31;51545;51.568;6.998;2022-10-22T03:51:21;10.84;99.63
64997;SHT31;51545;51.568;6.998;2022-10-22T03:53:47;10.81;99.60
64997;SHT31;51545;51.568;6.998;2022-10-22T03:56:12;10.83;99.63
64997;SHT31;51545;51.568;6.998;2022-10-22T03:58:39;10.76;99.58
64997;SHT31;51545;51.568;6.998;2022-10-22T04:01:09;10.73;99.58
64997;SHT31;51545;51.568;6.998;2022-10-22T04:03:35;10.77;99.68
64997;SHT31;51545;51.568;6.998;2022-10-22T04:06:08;10.81;99.74
64997;SHT31;51545;51.568;6.998;2022-10-22T04:08:35;10.80;99.54
64997;SHT31;51545;51.568;6.998;2022-10-22T04:11:02;10.77;99.59
64997;SHT31;51545;51.568;6.998;2022-10-22T04:13:28;10.80;99.58
64997;SHT31;51545;51.568;6.998;2022-10-22T04:15:53;10.75;99.48
64997;SHT31;51545;51.568;6.998;2022-10-22T04:18:19;10.73;99.60
64997;SHT31;51545;51.568;6.998;2022-10-22T04:20:45;10.73;99.61
64997;SHT31;51545;51.568;6.998;2022-10-22T04:23:11;10.73;99.59
64997;SHT31;51545;51.568;6.998;2022-10-22T04:25:37;10.76;99.59
64997;SHT31;51545;51.568;6.998;2022-10-22T04:28:06;10.76;99.68
64997;SHT31;51545;51.568;6.998;2022-10-22T04:30:32;10.77;99.66
64997;SHT31;51545;51.568;6.998;2022-10-22T04:32:58;10.88;99.82
64997;SHT31;51545;51.568;6.998;2022-10-22T04:35:24;10.91;99.87
64997;SHT31;51545;51.568;6.998;2022-10-22T04:37:49;10.97;99.84
64997;SHT31;51545;51.568;6.998;2022-10-22T04:40:15;11.01;99.85
64997;SHT31;51545;51.568;6.998;2022-10-22T04:42:40;11.03;99.97
64997;SHT31;51545;51.568;6.998;2022-10-22T04:45:06;11.08;99.99
64997;SHT31;51545;51.568;6.998;2022-10-22T04:47:32;11.19;99.99
64997;SHT31;51545;51.568;6.998;2022-10-22T04:49:57;11.25;99.99
64997;SHT31;51545;51.568;6.998;2022-10-22T04:52:23;11.34;99.99
64997;SHT31;51545;51.568;6.998;2022-10-22T04:54:48;11.36;99.99
64997;SHT31;51545;51.568;6.998;2022-10-22T04:57:14;11.40;99.99
64997;SHT31;51545;51.568;6.998;2022-10-22T04:59:39;11.53;99.99
64997;SHT31;51545;51.568;6.998;2022-10-22T05:02:04;11.55;99.99
64997;SHT31;51545;51.568;6.998;2022-10-22T05:04:30;11.58;99.99
64997;SHT31;51545;51.568;6.998;2022-10-22T05:06:56;11.65;99.99
64997;SHT31;51545;51.568;6.998;2022-10-22T05:09:21;11.66;99.99
64997;SHT31;51545;51.568;6.998;2022-10-22T05:11:47;11.66;99.99
64997;SHT31;51545;51.568;6.998;2022-10-22T05:14:16;11.65;99.99
64997;SHT31;51545;51.568;6.998;2022-10-22T05:16:46;11.59;99.99
64997;SHT31;51545;51.568;6.998;2022-10-22T05:19:19;11.63;99.99
64997;SHT31;51545;51.568;6.998;2022-10-22T05:21:50;11.78;99.99
64997;SHT31;51545;51.568;6.998;2022-10-22T05:24:17;11.86;99.99
64997;SHT31;51545;51.568;6.998;2022-10-22T05:26:42;12.06;99.99
64997;SHT31;51545;51.568;6.998;2022-10-22T05:29:08;12.21;99.99
64997;SHT31;51545;51.568;6.998;2022-10-22T05:31:34;12.29;99.99
64997;SHT31;51545;51.568;6.998;2022-10-22T05:34:00;12.15;99.99
64997;SHT31;51545;51.568;6.998;2022-10-22T05:36:25;12.40;99.99
64997;SHT31;51545;51.568;6.998;2022-10-22T05:38:51;12.52;99.99
64997;SHT31;51545;51.568;6.998;2022-10-22T05:41:18;12.60;99.99
64997;SHT31;51545;51.568;6.998;2022-10-22T05:43:45;12.70;99.99
64997;SHT31;51545;51.568;6.998;2022-10-22T05:46:12;12.70;99.99
64997;SHT31;51545;51.568;6.998;2022-10-22T05:48:39;12.63;99.99
64997;SHT31;51545;51.568;6.998;2022-10-22T05:51:09;12.69;99.99
64997;SHT31;51545;51.568;6.998;2022-10-22T05:53:37;12.67;99.99
64997;SHT31;51545;51.568;6.998;2022-10-22T05:56:06;12.71;99.99
64997;SHT31;51545;51.568;6.998;2022-10-22T05:58:35;12.61;99.99
64997;SHT31;51545;51.568;6.998;2022-10-22T06:01:01;12.95;99.99
64997;SHT31;51545;51.568;6.998;2022-10-22T06:03:31;12.98;99.99
64997;SHT31;51545;51.568;6.998;2022-10-22T06:06:00;13.05;99.99
64997;SHT31;51545;51.568;6.998;2022-10-22T06:08:28;13.14;99.99
64997;SHT31;51545;51.568;6.998;2022-10-22T06:10:55;13.14;99.99
64997;SHT31;51545;51.568;6.998;2022-10-22T06:13:21;13.11;99.99
64997;SHT31;51545;51.568;6.998;2022-10-22T06:15:47;13.10;99.99
64997;SHT31;51545;51.568;6.998;2022-10-22T06:18:13;13.04;99.99
64997;SHT31;51545;51.568;6.998;2022-10-22T06:20:38;13.04;99.99
64997;SHT31;51545;51.568;6.998;2022-10-22T06:23:04;13.11;99.99
64997;SHT31;51545;51.568;6.998;2022-10-22T06:25:29;13.32;99.99
64997;SHT31;51545;51.568;6.998;2022-10-22T06:27:54;13.36;99.99
64997;SHT31;51545;51.568;6.998;2022-10-22T06:30:20;13.35;99.99
64997;SHT31;51545;51.568;6.998;2022-10-22T06:32:45;13.33;99.99
64997;SHT31;51545;51.568;6.998;2022-10-22T06:35:11;13.80;99.99
64997;SHT31;51545;51.568;6.998;2022-10-22T06:37:36;13.76;99.99
64997;SHT31;51545;51.568;6.998;2022-10-22T06:40:02;13.70;99.99
64997;SHT31;51545;51.568;6.998;2022-10-22T06:42:28;13.70;99.99
64997;SHT31;51545;51.568;6.998;2022-10-22T06:44:53;13.69;99.99
64997;SHT31;51545;51.568;6.998;2022-10-22T06:47:18;13.74;99.99
64997;SHT31;51545;51.568;6.998;2022-10-22T06:49:47;13.80;99.99
64997;SHT31;51545;51.568;6.998;2022-10-22T06:52:13;13.81;99.99
64997;SHT31;51545;51.568;6.998;2022-10-22T06:54:39;13.78;99.99
64997;SHT31;51545;51.568;6.998;2022-10-22T06:57:04;13.76;99.99
64997;SHT31;51545;51.568;6.998;2022-10-22T06:59:30;13.84;99.99
64997;SHT31;51545;51.568;6.998;2022-10-22T07:01:55;13.77;99.99
64997;SHT31;51545;51.568;6.998;2022-10-22T07:04:21;13.74;99.99
64997;SHT31;51545;51.568;6.998;2022-10-22T07:06:46;13.77;99.99
64997;SHT31;51545;51.568;6.998;2022-10-22T07:09:12;13.87;99.99
64997;SHT31;51545;51.568;6.998;2022-10-22T07:11:38;13.88;99.99
64997;SHT31;51545;51.568;6.998;2022-10-22T07:14:06;14.01;99.99
64997;SHT31;51545;51.568;6.998;2022-10-22T07:16:32;14.22;99.99
64997;SHT31;51545;51.568;6.998;2022-10-22T07:18:57;14.25;99.68
64997;SHT31;51545;51.568;6.998;2022-10-22T07:21:23;14.29;99.53
64997;SHT31;51545;51.568;6.998;2022-10-22T07:23:50;14.43;99.13
64997;SHT31;51545;51.568;6.998;2022-10-22T07:26:15;14.60;98.46
64997;SHT31;51545;51.568;6.998;2022-10-22T07:28:42;14.69;97.70
64997;SHT31;51545;51.568;6.998;2022-10-22T07:31:08;14.78;97.33
64997;SHT31;51545;51.568;6.998;2022-10-22T07:33:34;14.87;96.61
64997;SHT31;51545;51.568;6.998;2022-10-22T07:36:02;14.98;96.33
64997;SHT31;51545;51.568;6.998;2022-10-22T07:38:30;15.09;96.22
64997;SHT31;51545;51.568;6.998;2022-10-22T07:40:56;15.26;95.17
64997;SHT31;51545;51.568;6.998;2022-10-22T07:43:22;15.33;94.64
64997;SHT31;51545;51.568;6.998;2022-10-22T07:45:48;15.36;94.83
64997;SHT31;51545;51.568;6.998;2022-10-22T07:48:14;15.38;95.19
64997;SHT31;51545;51.568;6.998;2022-10-22T07:50:40;15.40;94.78
64997;SHT31;51545;51.568;6.998;2022-10-22T07:53:05;15.40;94.79
64997;SHT31;51545;51.568;6.998;2022-10-22T07:55:31;15.47;93.64
64997;SHT31;51545;51.568;6.998;2022-10-22T07:57:57;15.50;93.74
64997;SHT31;51545;51.568;6.998;2022-10-22T08:00:23;15.56;93.99
64997;SHT31;51545;51.568;6.998;2022-10-22T08:02:48;15.59;93.24
64997;SHT31;51545;51.568;6.998;2022-10-22T08:05:13;15.61;92.97
64997;SHT31;51545;51.568;6.998;2022-10-22T08:07:40;15.61;92.38
64997;SHT31;51545;51.568;6.998;2022-10-22T08:10:06;15.63;92.48
64997;SHT31;51545;51.568;6.998;2022-10-22T08:12:33;15.53;92.83
64997;SHT31;51545;51.568;6.998;2022-10-22T08:14:58;15.50;92.38
64997;SHT31;51545;51.568;6.998;2022-10-22T08:17:25;15.44;92.17
64997;SHT31;51545;51.568;6.998;2022-10-22T08:19:50;15.43;92.75
64997;SHT31;51545;51.568;6.998;2022-10-22T08:22:16;15.39;93.17
64997;SHT31;51545;51.568;6.998;2022-10-22T08:24:41;15.43;92.48
64997;SHT31;51545;51.568;6.998;2022-10-22T08:27:07;15.53;92.60
64997;SHT31;51545;51.568;6.998;2022-10-22T08:29:32;15.57;92.16
64997;SHT31;51545;51.568;6.998;2022-10-22T08:31:58;15.61;92.01
64997;SHT31;51545;51.568;6.998;2022-10-22T08:34:23;15.64;92.02
64997;SHT31;51545;51.568;6.998;2022-10-22T08:36:49;15.67;91.99
64997;SHT31;51545;51.568;6.998;2022-10-22T08:39:14;15.74;90.57
64997;SHT31;51545;51.568;6.998;2022-10-22T08:49:41;15.88;89.74
64997;SHT31;51545;51.568;6.998;2022-10-22T08:52:11;15.88;89.84
64997;SHT31;51545;51.568;6.998;2022-10-22T08:54:52;15.87;89.94
64997;SHT31;51545;51.568;6.998;2022-10-22T09:00:24;15.97;88.35
64997;SHT31;51545;51.568;6.998;2022-10-22T09:07:57;15.97;89.12
64997;SHT31;51545;51.568;6.998;2022-10-22T09:10:28;16.01;88.74
64997;SHT31;51545;51.568;6.998;2022-10-22T09:12:59;16.01;88.49
64997;SHT31;51545;51.568;6.998;2022-10-22T09:15:25;16.04;87.79
64997;SHT31;51545;51.568;6.998;2022-10-22T09:20:54;16.11;88.48
64997;SHT31;51545;51.568;6.998;2022-10-22T09:23:25;16.18;88.55
64997;SHT31;51545;51.568;6.998;2022-10-22T09:25:58;16.18;87.71
64997;SHT31;51545;51.568;6.998;2022-10-22T09:28:24;16.15;87.35
64997;SHT31;51545;51.568;6.998;2022-10-22T09:30:50;16.18;87.41
64997;SHT31;51545;51.568;6.998;2022-10-22T09:33:22;16.22;86.81
64997;SHT31;51545;51.568;6.998;2022-10-22T09:35:52;16.21;86.85
64997;SHT31;51545;51.568;6.998;2022-10-22T09:38:20;16.24;87.28
64997;SHT31;51545;51.568;6.998;2022-10-22T09:40:51;16.30;87.14
64997;SHT31;51545;51.568;6.998;2022-10-22T09:43:19;16.36;86.56
64997;SHT31;51545;51.568;6.998;2022-10-22T09:45:45;16.42;86.17
64997;SHT31;51545;51.568;6.998;2022-10-22T09:48:22;16.47;86.28
64997;SHT31;51545;51.568;6.998;2022-10-22T09:50:56;16.44;86.00
64997;SHT31;51545;51.568;6.998;2022-10-22T09:53:31;16.46;85.41
64997;SHT31;51545;51.568;6.998;2022-10-22T09:56:06;16.43;85.92
64997;SHT31;51545;51.568;6.998;2022-10-22T09:58:54;16.40;85.88
64997;SHT31;51545;51.568;6.998;2022-10-22T10:01:23;16.43;86.24
64997;SHT31;51545;51.568;6.998;2022-10-22T10:03:53;16.44;85.86
64997;SHT31;51545;51.568;6.998;2022-10-22T10:06:19;16.50;85.69
64997;SHT31;51545;51.568;6.998;2022-10-22T10:08:47;16.52;86.06
64997;SHT31;51545;51.568;6.998;2022-10-22T10:11:16;16.54;86.27
64997;SHT31;51545;51.568;6.998;2022-10-22T10:16:34;16.57;85.21
64997;SHT31;51545;51.568;6.998;2022-10-22T10:29:53;16.64;85.00
64997;SHT31;51545;51.568;6.998;2022-10-22T10:40:44;17.01;83.67
64997;SHT31;51545;51.568;6.998;2022-10-22T10:46:04;16.95;82.84
64997;SHT31;51545;51.568;6.998;2022-10-22T10:48:49;16.92;83.32
64997;SHT31;51545;51.568;6.998;2022-10-22T10:51:24;16.89;83.36
64997;SHT31;51545;51.568;6.998;2022-10-22T10:54:07;16.94;83.70
64997;SHT31;51545;51.568;6.998;2022-10-22T10:59:49;16.95;83.31
64997;SHT31;51545;51.568;6.998;2022-10-22T11:07:37;16.97;83.29
64997;SHT31;51545;51.568;6.998;2022-10-22T11:10:31;16.99;82.64
64997;SHT31;51545;51.568;6.998;2022-10-22T11:13:03;16.98;82.97
64997;SHT31;51545;51.568;6.998;2022-10-22T11:15:38;17.01;82.65
64997;SHT31;51545;51.568;6.998;2022-10-22T11:18:47;17.11;82.62
64997;SHT31;51545;51.568;6.998;2022-10-22T11:26:50;17.27;81.74
64997;SHT31;51545;51.568;6.998;2022-10-22T11:29:21;17.20;82.68
64997;SHT31;51545;51.568;6.998;2022-10-22T11:31:49;17.32;81.99
64997;SHT31;51545;51.568;6.998;2022-10-22T11:34:30;17.44;81.17
64997;SHT31;51545;51.568;6.998;2022-10-22T11:37:02;17.37;82.01
64997;SHT31;51545;51.568;6.998;2022-10-22T11:39:31;17.42;81.66
64997;SHT31;51545;51.568;6.998;2022-10-22T11:42:05;17.42;81.70
64997;SHT31;51545;51.568;6.998;2022-10-22T11:50:21;17.12;82.34
64997;SHT31;51545;51.568;6.998;2022-10-22T11:53:03;17.05;82.03
64997;SHT31;51545;51.568;6.998;2022-10-22T12:08:43;17.02;80.60
64997;SHT31;51545;51.568;6.998;2022-10-22T12:11:20;16.98;80.80
64997;SHT31;51545;51.568;6.998;2022-10-22T12:13:57;16.97;80.49
64997;SHT31;51545;51.568;6.998;2022-10-22T12:18:57;17.08;81.26
64997;SHT31;51545;51.568;6.998;2022-10-22T12:21:27;17.08;80.24
64997;SHT31;51545;51.568;6.998;2022-10-22T12:23:52;17.06;80.84
64997;SHT31;51545;51.568;6.998;2022-10-22T12:26:25;17.04;80.93
64997;SHT31;51545;51.568;6.998;2022-10-22T12:28:58;17.11;80.50
64997;SHT31;51545;51.568;6.998;2022-10-22T12:31:37;17.20;80.65
64997;SHT31;51545;51.568;6.998;2022-10-22T12:34:04;17.15;80.37
64997;SHT31;51545;51.568;6.998;2022-10-22T12:36:32;17.19;80.37
64997;SHT31;51545;51.568;6.998;2022-10-22T12:39:18;17.20;79.77
64997;SHT31;51545;51.568;6.998;2022-10-22T12:41:45;17.25;79.52
64997;SHT31;51545;51.568;6.998;2022-10-22T12:44:12;17.29;79.83
64997;SHT31;51545;51.568;6.998;2022-10-22T12:46:41;17.35;79.07
64997;SHT31;51545;51.568;6.998;2022-10-22T12:49:18;17.39;80.27
64997;SHT31;51545;51.568;6.998;2022-10-22T12:51:46;17.66;79.53
64997;SHT31;51545;51.568;6.998;2022-10-22T12:54:22;17.60;78.72
64997;SHT31;51545;51.568;6.998;2022-10-22T12:56:50;17.77;78.71
64997;SHT31;51545;51.568;6.998;2022-10-22T12:59:27;17.82;78.62
64997;SHT31;51545;51.568;6.998;2022-10-22T13:01:57;17.88;78.28
64997;SHT31;51545;51.568;6.998;2022-10-22T13:04:31;17.87;78.64
64997;SHT31;51545;51.568;6.998;2022-10-22T13:09:39;17.98;78.43
64997;SHT31;51545;51.568;6.998;2022-10-22T13:12:08;17.98;78.13
64997;SHT31;51545;51.568;6.998;2022-10-22T13:14:40;17.92;78.88
64997;SHT31;51545;51.568;6.998;2022-10-22T13:17:10;17.77;78.95
64997;SHT31;51545;51.568;6.998;2022-10-22T13:24:56;17.42;79.62
64997;SHT31;51545;51.568;6.998;2022-10-22T13:27:24;17.35;80.05
64997;SHT31;51545;51.568;6.998;2022-10-22T13:29:52;17.23;80.11
64997;SHT31;51545;51.568;6.998;2022-10-22T13:32:24;17.18;80.43
64997;SHT31;51545;51.568;6.998;2022-10-22T13:34:51;17.20;80.38
64997;SHT31;51545;51.568;6.998;2022-10-22T13:37:17;17.27;80.83
64997;SHT31;51545;51.568;6.998;2022-10-22T13:39:42;17.25;80.32
64997;SHT31;51545;51.568;6.998;2022-10-22T13:42:11;17.23;80.71
64997;SHT31;51545;51.568;6.998;2022-10-22T13:44:37;17.27;80.16
64997;SHT31;51545;51.568;6.998;2022-10-22T13:47:17;17.30;80.94
64997;SHT31;51545;51.568;6.998;2022-10-22T13:49:56;17.26;80.17
64997;SHT31;51545;51.568;6.998;2022-10-22T13:52:27;17.29;80.36
64997;SHT31;51545;51.568;6.998;2022-10-22T13:55:11;17.29;79.70
64997;SHT31;51545;51.568;6.998;2022-10-22T13:58:05;17.32;80.55
64997;SHT31;51545;51.568;6.998;2022-10-22T14:00:35;17.39;80.38
64997;SHT31;51545;51.568;6.998;2022-10-22T14:03:03;17.44;79.74
64997;SHT31;51545;51.568;6.998;2022-10-22T14:05:29;17.46;79.49
64997;SHT31;51545;51.568;6.998;2022-10-22T14:07:59;17.54;79.69
64997;SHT31;51545;51.568;6.998;2022-10-22T14:10:26;17.64;79.41
64997;SHT31;51545;51.568;6.998;2022-10-22T14:12:51;17.77;78.09
64997;SHT31;51545;51.568;6.998;2022-10-22T14:15:19;17.92;78.44
64997;SHT31;51545;51.568;6.998;2022-10-22T14:17:47;17.94;78.45
64997;SHT31;51545;51.568;6.998;2022-10-22T14:20:20;17.95;78.55
64997;SHT31;51545;51.568;6.998;2022-10-22T14:22:48;18.08;78.16
64997;SHT31;51545;51.568;6.998;2022-10-22T14:25:15;18.16;78.07
64997;SHT31;51545;51.568;6.998;2022-10-22T14:27:43;18.27;78.34
64997;SHT31;51545;51.568;6.998;2022-10-22T14:30:12;18.22;78.17
64997;SHT31;51545;51.568;6.998;2022-10-22T14:32:42;18.04;77.76
64997;SHT31;51545;51.568;6.998;2022-10-22T14:35:12;18.18;77.04
64997;SHT31;51545;51.568;6.998;2022-10-22T14:37:39;18.16;77.00
64997;SHT31;51545;51.568;6.998;2022-10-22T14:40:05;18.08;77.80
64997;SHT31;51545;51.568;6.998;2022-10-22T14:42:32;18.10;78.58
64997;SHT31;51545;51.568;6.998;2022-10-22T14:45:05;17.80;78.76
64997;SHT31;51545;51.568;6.998;2022-10-22T14:47:34;17.73;78.91
64997;SHT31;51545;51.568;6.998;2022-10-22T14:50:00;17.54;78.82
64997;SHT31;51545;51.568;6.998;2022-10-22T14:52:25;17.42;78.96
64997;SHT31;51545;51.568;6.998;2022-10-22T14:54:51;17.36;79.34
64997;SHT31;51545;51.568;6.998;2022-10-22T14:57:17;17.40;79.45
64997;SHT31;51545;51.568;6.998;2022-10-22T14:59:43;17.57;78.92
64997;SHT31;51545;51.568;6.998;2022-10-22T15:02:11;17.70;78.67
64997;SHT31;51545;51.568;6.998;2022-10-22T15:04:37;17.85;78.36
64997;SHT31;51545;51.568;6.998;2022-10-22T15:07:03;17.88;78.19
64997;SHT31;51545;51.568;6.998;2022-10-22T15:09:28;17.77;77.60
64997;SHT31;51545;51.568;6.998;2022-10-22T15:11:54;17.69;78.34
64997;SHT31;51545;51.568;6.998;2022-10-22T15:14:20;17.66;78.37
64997;SHT31;51545;51.568;6.998;2022-10-22T15:16:45;17.55;78.63
64997;SHT31;51545;51.568;6.998;2022-10-22T15:19:11;17.44;79.44
64997;SHT31;51545;51.568;6.998;2022-10-22T15:21:37;17.37;79.11
64997;SHT31;51545;51.568;6.998;2022-10-22T15:24:02;17.47;79.32
64997;SHT31;51545;51.568;6.998;2022-10-22T15:26:28;17.53;79.48
64997;SHT31;51545;51.568;6.998;2022-10-22T15:28:54;17.70;79.48
64997;SHT31;51545;51.568;6.998;2022-10-22T15:31:40;17.77;78.65
64997;SHT31;51545;51.568;6.998;2022-10-22T15:34:19;17.64;78.62
64997;SHT31;51545;51.568;6.998;2022-10-22T15:36:46;17.67;78.42
64997;SHT31;51545;51.568;6.998;2022-10-22T15:39:12;17.60;78.81
64997;SHT31;51545;51.568;6.998;2022-10-22T15:41:37;17.55;79.50
64997;SHT31;51545;51.568;6.998;2022-10-22T15:44:03;17.47;79.23
64997;SHT31;51545;51.568;6.998;2022-10-22T15:46:33;17.30;79.47
64997;SHT31;51545;51.568;6.998;2022-10-22T15:48:59;17.16;80.01
64997;SHT31;51545;51.568;6.998;2022-10-22T15:51:25;17.04;80.99
64997;SHT31;51545;51.568;6.998;2022-10-22T15:53:51;17.04;80.96
64997;SHT31;51545;51.568;6.998;2022-10-22T15:56:18;16.91;81.44
64997;SHT31;51545;51.568;6.998;2022-10-22T15:58:43;16.75;82.85
64997;SHT31;51545;51.568;6.998;2022-10-22T16:01:09;16.61;82.92
64997;SHT31;51545;51.568;6.998;2022-10-22T16:03:37;16.49;83.91
64997;SHT31;51545;51.568;6.998;2022-10-22T16:06:03;16.32;84.46
64997;SHT31;51545;51.568;6.998;2022-10-22T16:08:29;16.15;85.08
64997;SHT31;51545;51.568;6.998;2022-10-22T16:10:54;15.91;86.15
64997;SHT31;51545;51.568;6.998;2022-10-22T16:13:20;15.77;86.67
64997;SHT31;51545;51.568;6.998;2022-10-22T16:15:48;15.73;86.77
64997;SHT31;51545;51.568;6.998;2022-10-22T16:18:14;15.61;87.00
64997;SHT31;51545;51.568;6.998;2022-10-22T16:20:39;15.54;87.11
64997;SHT31;51545;51.568;6.998;2022-10-22T16:23:05;15.36;87.47
64997;SHT31;51545;51.568;6.998;2022-10-22T16:25:38;15.20;87.88
64997;SHT31;51545;51.568;6.998;2022-10-22T16:28:07;15.02;88.57
64997;SHT31;51545;51.568;6.998;2022-10-22T16:30:34;14.87;88.93
64997;SHT31;51545;51.568;6.998;2022-10-22T16:33:01;14.74;89.36
64997;SHT31;51545;51.568;6.998;2022-10-22T16:35:28;14.57;89.67
64997;SHT31;51545;51.568;6.998;2022-10-22T16:37:54;14.52;89.93
64997;SHT31;51545;51.568;6.998;2022-10-22T16:40:19;14.42;90.16
64997;SHT31;51545;51.568;6.998;2022-10-22T16:42:45;14.28;90.57
64997;SHT31;51545;51.568;6.998;2022-10-22T16:45:11;14.11;90.80
64997;SHT31;51545;51.568;6.998;2022-10-22T16:47:37;14.11;91.08
64997;SHT31;51545;51.568;6.998;2022-10-22T16:50:04;14.06;91.27
64997;SHT31;51545;51.568;6.998;2022-10-22T16:52:30;13.95;91.23
64997;SHT31;51545;51.568;6.998;2022-10-22T16:54:56;13.87;91.76
64997;SHT31;51545;51.568;6.998;2022-10-22T16:57:22;13.78;91.97
64997;SHT31;51545;51.568;6.998;2022-10-22T16:59:48;13.76;92.16
64997;SHT31;51545;51.568;6.998;2022-10-22T17:02:13;13.83;92.05
64997;SHT31;51545;51.568;6.998;2022-10-22T17:04:39;13.73;92.02
64997;SHT31;51545;51.568;6.998;2022-10-22T17:07:04;13.74;91.94
64997;SHT31;51545;51.568;6.998;2022-10-22T17:09:30;13.71;92.00
64997;SHT31;51545;51.568;6.998;2022-10-22T17:11:55;13.67;91.90
64997;SHT31;51545;51.568;6.998;2022-10-22T17:14:21;13.56;92.15
64997;SHT31;51545;51.568;6.998;2022-10-22T17:16:46;13.47;92.18
64997;SHT31;51545;51.568;6.998;2022-10-22T17:19:18;13.39;92.39
64997;SHT31;51545;51.568;6.998;2022-10-22T17:21:44;13.31;92.76
64997;SHT31;51545;51.568;6.998;2022-10-22T17:24:10;13.26;92.69
64997;SHT31;51545;51.568;6.998;2022-10-22T17:26:36;13.22;92.94
64997;SHT31;51545;51.568;6.998;2022-10-22T17:29:05;13.18;93.05
64997;SHT31;51545;51.568;6.998;2022-10-22T17:31:34;13.15;92.95
64997;SHT31;51545;51.568;6.998;2022-10-22T17:34:07;13.11;92.99
64997;SHT31;51545;51.568;6.998;2022-10-22T17:36:35;13.14;92.88